Time;durP1;ratioP1;P1;durP2;ratioP2;P2;SDS_P1;SDS_P2;PMS_P1;PMS_P2;Temp;Humidity;BMP_temperature;BMP_pressure;BME280_temperature;BME280_humidity;BME280_pressure;Samples;Min_cycle;Max_cycle;Signal;HPM_P1;HPM_P2
2022/06/11 00:02:22;;;;;;;8.23;2.42;;;14.40;99.90;;;13.52;100.00;98212.66;5005765;28;21564;-68
2022/06/11 00:04:49;;;;;;;8.18;1.92;;;14.40;99.90;;;13.64;100.00;98204.28;5008225;28;20383;-67
2022/06/11 00:07:21;;;;;;;9.30;2.78;;;14.40;99.90;;;13.62;100.00;98202.69;5005289;28;20463;-67
2022/06/11 00:09:49;;;;;;;7.97;2.28;;;14.30;99.90;;;13.69;100.00;98210.16;5007374;28;21730;-68
2022/06/11 00:12:17;;;;;;;9.77;2.70;;;14.30;99.90;;;13.50;100.00;98211.88;5005000;28;20129;-67
2022/06/11 00:14:46;;;;;;;7.90;1.95;;;14.30;99.90;;;13.48;100.00;98214.56;5007259;28;20137;-67
2022/06/11 00:17:16;;;;;;;6.05;2.08;;;14.20;99.90;;;13.53;100.00;98212.59;5003796;28;20398;-67
2022/06/11 00:19:44;;;;;;;9.02;3.15;;;14.30;99.90;;;13.54;100.00;98213.44;5004420;28;20081;-67
2022/06/11 00:22:13;;;;;;;5.40;2.25;;;14.30;99.90;;;13.56;100.00;98209.84;5005418;28;20102;-69
2022/06/11 00:24:40;;;;;;;6.10;1.90;;;14.30;99.90;;;13.83;100.00;98211.28;5004451;28;20156;-68
2022/06/11 00:27:09;;;;;;;7.82;1.92;;;14.20;99.90;;;13.89;100.00;98204.03;5006921;28;20073;-68
2022/06/11 00:29:38;;;;;;;7.32;2.08;;;14.30;99.90;;;13.72;100.00;98215.22;5006927;28;20078;-67
2022/06/11 00:32:07;;;;;;;11.20;2.67;;;14.40;99.90;;;13.50;100.00;98217.97;5006019;28;20046;-68
2022/06/11 00:34:35;;;;;;;8.13;2.03;;;14.30;99.90;;;13.68;100.00;98210.19;5006142;28;20077;-67
2022/06/11 00:37:04;;;;;;;4.80;1.85;;;14.30;99.90;;;13.98;100.00;98211.44;5004931;28;20085;-68
2022/06/11 00:39:35;;;;;;;4.60;1.67;;;14.40;99.90;;;14.15;100.00;98209.78;5006186;28;21437;-67
2022/06/11 00:42:15;;;;;;;6.60;2.15;;;14.50;99.90;;;13.81;100.00;98203.53;5005839;28;20569;-67
2022/06/11 00:44:42;;;;;;;5.80;1.58;;;14.50;99.90;;;14.17;100.00;98200.13;5007382;28;20127;-67
2022/06/11 00:47:19;;;;;;;4.55;1.70;;;14.50;99.90;;;13.99;100.00;98197.44;5008124;28;20129;-67
2022/06/11 00:49:58;;;;;;;4.22;1.75;;;14.50;99.90;;;14.00;100.00;98207.00;5007587;28;20086;-68
2022/06/11 00:52:31;;;;;;;5.55;2.10;;;14.50;99.90;;;13.76;100.00;98200.28;5005318;28;20141;-67
2022/06/11 00:55:10;;;;;;;5.50;1.80;;;14.40;99.90;;;13.92;100.00;98200.44;5007941;28;20092;-67
2022/06/11 00:57:45;;;;;;;5.45;1.92;;;14.40;99.90;;;13.76;100.00;98197.66;5005548;28;20472;-68
2022/06/11 01:00:23;;;;;;;8.90;2.22;;;14.30;99.90;;;13.63;100.00;98193.91;5003249;28;20312;-67
2022/06/11 01:02:50;;;;;;;6.30;2.03;;;14.20;99.90;;;13.62;100.00;98200.06;5007522;28;20092;-68
2022/06/11 01:05:30;;;;;;;7.25;2.40;;;14.20;99.90;;;13.45;100.00;98192.97;5006641;28;20107;-67
2022/06/11 01:08:07;;;;;;;5.32;2.13;;;14.20;99.90;;;13.50;100.00;98193.59;5005911;28;20049;-67
2022/06/11 01:11:26;;;;;;;7.55;2.40;;;14.10;99.90;;;13.27;100.00;98210.25;5005436;28;20089;-67
2022/06/11 01:14:27;;;;;;;5.18;2.10;;;14.10;99.90;;;13.36;100.00;98202.03;5005731;28;20042;-67
2022/06/11 01:17:11;;;;;;;7.60;2.20;;;14.00;99.90;;;13.42;100.00;98204.41;5004529;28;20172;-67
2022/06/11 01:20:01;;;;;;;5.80;2.15;;;13.90;99.90;;;13.77;100.00;98204.56;5008423;28;20050;-67
2022/06/11 01:22:54;;;;;;;6.35;2.35;;;14.00;99.90;;;13.81;100.00;98206.97;5011695;28;20087;-67
2022/06/11 01:25:45;;;;;;;8.65;2.72;;;14.10;99.90;;;13.73;100.00;98200.41;4996321;28;20722;-66
2022/06/11 01:28:39;;;;;;;5.97;2.00;;;14.20;99.90;;;13.90;100.00;98204.88;5009530;28;20220;-66
2022/06/11 01:31:23;;;;;;;4.82;1.75;;;14.30;99.90;;;13.90;100.00;98195.25;5008434;28;20113;-66
2022/06/11 01:34:20;;;;;;;6.25;1.63;;;14.30;99.90;;;14.02;100.00;98196.47;5010660;28;20145;-66
2022/06/11 01:36:53;;;;;;;5.20;1.58;;;14.30;99.90;;;14.06;100.00;98190.19;5013690;28;20052;-67
2022/06/11 01:39:35;;;;;;;6.07;1.73;;;14.30;99.90;;;14.33;100.00;98189.81;5011606;28;20043;-66
2022/06/11 01:42:18;;;;;;;7.68;1.77;;;14.40;99.90;;;14.15;100.00;98189.75;5023203;28;20085;-69
2022/06/11 01:44:46;;;;;;;4.97;1.40;;;14.50;99.90;;;14.33;100.00;98195.88;5006442;28;20136;-68
2022/06/11 01:47:14;;;;;;;5.82;1.70;;;14.60;99.90;;;14.37;100.00;98193.97;5003920;28;20092;-66
2022/06/11 01:49:46;;;;;;;3.25;1.83;;;14.60;99.90;;;13.94;100.00;98198.59;5006861;28;20116;-67
2022/06/11 01:52:48;;;;;;;6.65;1.90;;;14.60;99.90;;;13.94;100.00;98196.81;5005238;28;20045;-67
2022/06/11 01:55:41;;;;;;;7.18;3.17;;;14.60;99.90;;;13.62;100.00;98195.69;5008943;28;20065;-67
2022/06/11 01:58:46;;;;;;;9.18;2.40;;;14.50;99.90;;;13.77;100.00;98199.34;5010146;28;20484;-67
2022/06/11 02:01:34;;;;;;;5.30;2.20;;;14.40;99.90;;;13.73;100.00;98197.78;5020357;28;20053;-68
2022/06/11 02:04:17;;;;;;;9.93;2.50;;;14.40;99.90;;;13.47;100.00;98198.97;5014921;28;20057;-68
2022/06/11 02:07:15;;;;;;;5.22;2.08;;;14.40;99.90;;;13.50;100.00;98204.03;5009098;28;20580;-66
2022/06/11 02:09:59;;;;;;;8.90;2.28;;;14.30;99.90;;;13.57;100.00;98203.72;5005851;28;20103;-67
2022/06/11 02:12:41;;;;;;;6.35;2.67;;;14.30;99.90;;;13.41;100.00;98200.09;5007691;28;20100;-68
2022/06/11 02:15:21;;;;;;;5.35;2.78;;;14.30;99.90;;;13.63;100.00;98194.75;5002633;28;20104;-67
2022/06/11 02:17:55;;;;;;;8.60;3.85;;;14.30;99.90;;;13.51;100.00;98197.94;5006377;28;20133;-68
2022/06/11 02:20:34;;;;;;;7.07;3.30;;;14.30;99.90;;;13.27;100.00;98205.03;5003735;28;20151;-67
2022/06/11 02:23:15;;;;;;;8.38;3.50;;;14.30;99.90;;;13.41;100.00;98205.31;5039562;28;20073;-66
2022/06/11 02:25:48;;;;;;;7.25;3.13;;;14.20;99.90;;;13.57;100.00;98208.94;5006805;28;20508;-68
2022/06/11 02:28:21;;;;;;;;;;;14.20;99.90;;;13.28;100.00;98205.00;5006156;28;20076;-66
2022/06/11 02:30:50;;;;;;;4.57;2.23;;;14.20;99.90;;;13.17;100.00;98209.78;5010684;28;19944;-67
2022/06/11 02:33:20;;;;;;;9.38;2.80;;;14.10;99.90;;;13.17;100.00;98201.97;4994620;28;20125;-67
2022/06/11 02:36:05;;;;;;;8.35;2.63;;;14.00;99.90;;;13.21;100.00;98206.16;5037437;28;20153;-67
2022/06/11 02:38:31;;;;;;;9.70;2.78;;;14.00;99.90;;;13.18;100.00;98203.66;5012837;28;20427;-66
2022/06/11 02:41:05;;;;;;;7.82;2.50;;;14.00;99.90;;;13.08;100.00;98205.81;5008686;28;20042;-67
2022/06/11 02:43:33;;;;;;;6.93;2.75;;;14.00;99.90;;;13.02;100.00;98210.44;5011589;28;20613;-67
2022/06/11 02:46:40;;;;;;;7.68;2.50;;;14.00;99.90;;;13.16;100.00;98208.97;5011753;28;20137;-67
2022/06/11 02:48:48;;;;;;;6.30;2.40;;;14.00;99.90;;;13.12;100.00;98220.41;5011517;28;20053;-67
2022/06/11 02:51:16;;;;;;;7.53;2.25;;;13.90;99.90;;;13.23;100.00;98216.50;5010438;28;20639;-68
2022/06/11 02:53:44;;;;;;;4.97;2.40;;;14.00;99.90;;;13.12;100.00;98223.03;5010533;28;20045;-67
2022/06/11 02:56:11;;;;;;;10.55;2.63;;;14.00;99.90;;;13.13;100.00;98223.88;5010130;28;20574;-68
2022/06/11 02:58:38;;;;;;;8.18;2.45;;;14.00;99.90;;;13.21;100.00;98213.13;5012880;28;20073;-68
2022/06/11 03:01:05;;;;;;;4.88;1.83;;;14.00;99.90;;;13.42;100.00;98216.59;5010971;28;20081;-67
2022/06/11 03:03:32;;;;;;;5.70;1.38;;;14.00;99.90;;;13.88;100.00;98206.69;5012575;28;20141;-68
2022/06/11 03:05:59;;;;;;;4.72;1.58;;;14.10;99.90;;;14.12;100.00;98208.19;5015160;28;20069;-68
2022/06/11 03:08:26;;;;;;;5.28;1.73;;;14.30;99.90;;;14.13;100.00;98202.03;5008282;28;20053;-67
2022/06/11 03:10:56;;;;;;;7.63;2.28;;;14.50;99.90;;;13.89;100.00;98213.59;5007945;28;20184;-68
2022/06/11 03:13:28;;;;;;;5.88;2.17;;;14.50;99.90;;;13.90;100.00;98213.53;5012012;28;20108;-69
2022/06/11 03:15:55;;;;;;;5.40;1.70;;;14.50;99.90;;;13.98;100.00;98210.56;5013618;28;20073;-69
2022/06/11 03:18:22;;;;;;;7.68;2.30;;;14.50;99.90;;;13.89;100.00;98211.84;5030504;28;20108;-73
2022/06/11 03:20:50;;;;;;;5.65;2.10;;;14.40;99.90;;;13.96;100.00;98220.25;5020776;28;20092;-66
2022/06/11 03:23:18;;;;;;;5.22;1.95;;;14.40;99.90;;;14.01;100.00;98226.09;5043121;28;20077;-66
2022/06/11 03:25:46;;;;;;;6.78;2.28;;;14.50;99.90;;;14.10;100.00;98222.22;5009031;28;20486;-66
2022/06/11 03:28:19;;;;;;;4.22;1.30;;;14.50;99.90;;;14.33;100.00;98218.53;5006791;28;20092;-66
2022/06/11 03:30:47;;;;;;;6.30;1.60;;;14.60;99.90;;;14.28;100.00;98217.88;5013472;28;20105;-68
2022/06/11 03:33:15;;;;;;;5.05;1.38;;;14.70;99.90;;;14.34;100.00;98217.59;5008184;28;20088;-69
2022/06/11 03:35:46;;;;;;;4.75;1.75;;;14.80;99.90;;;14.57;100.00;98212.16;5008890;28;20417;-67
2022/06/11 03:38:13;;;;;;;4.63;1.63;;;14.90;99.90;;;14.59;100.00;98212.91;5013568;28;20073;-66
2022/06/11 03:40:41;;;;;;;3.53;1.40;;;14.90;99.90;;;14.44;100.00;98217.09;5009765;28;20149;-68
2022/06/11 03:43:08;;;;;;;3.22;1.38;;;15.00;99.90;;;14.61;100.00;98212.84;5008812;28;20435;-66
2022/06/11 03:45:36;;;;;;;6.00;1.50;;;15.00;99.90;;;14.63;100.00;98209.22;5008426;28;20056;-67
2022/06/11 03:48:04;;;;;;;4.75;1.45;;;15.10;99.90;;;14.83;100.00;98212.63;5008743;28;20132;-67
2022/06/11 03:50:36;;;;;;;4.32;1.33;;;15.10;99.90;;;14.87;100.00;98211.56;5008834;28;20519;-66
2022/06/11 03:53:06;;;;;;;4.75;1.20;;;15.20;99.90;;;15.00;100.00;98214.41;5009045;28;20042;-69
2022/06/11 03:55:33;;;;;;;8.32;2.20;;;15.20;99.90;;;14.87;100.00;98208.97;5008812;28;20484;-66
2022/06/11 03:58:01;;;;;;;7.35;2.03;;;15.20;99.90;;;14.85;100.00;98216.03;5012583;28;20366;-66
2022/06/11 04:03:18;;;;;;;3.92;1.65;;;15.20;99.90;;;14.90;100.00;98213.19;5008729;28;20053;-68
2022/06/11 04:05:47;;;;;;;4.47;1.70;;;15.30;99.90;;;14.95;100.00;98214.63;5012067;28;20160;-67
2022/06/11 04:08:16;;;;;;;7.28;2.08;;;15.40;99.90;;;14.78;100.00;98218.09;5013891;28;20085;-68
2022/06/11 04:10:44;;;;;;;7.93;2.25;;;15.40;99.90;;;14.64;100.00;98218.78;5010278;28;20136;-68
2022/06/11 04:13:12;;;;;;;5.85;2.05;;;15.40;99.90;;;14.56;100.00;98223.50;5007415;28;20669;-68
2022/06/11 04:15:41;;;;;;;4.88;1.75;;;15.40;99.90;;;14.97;100.00;98222.41;5009208;28;20129;-67
2022/06/11 04:18:17;;;;;;;4.88;1.50;;;15.40;99.90;;;15.17;100.00;98217.00;5011007;28;20080;-67
2022/06/11 04:20:44;;;;;;;4.90;1.80;;;15.50;99.90;;;14.93;100.00;98220.88;5011898;28;20543;-67
2022/06/11 04:23:11;;;;;;;3.75;1.70;;;15.50;99.90;;;14.90;100.00;98227.09;5010887;28;20085;-67
2022/06/11 04:25:38;;;;;;;6.88;1.77;;;15.50;99.90;;;15.14;100.00;98230.22;5009772;28;20073;-66
2022/06/11 04:28:06;;;;;;;4.90;1.40;;;15.60;99.90;;;15.32;100.00;98227.59;5009628;28;20096;-68
2022/06/11 04:30:33;;;;;;;5.07;1.58;;;15.60;99.90;;;15.45;100.00;98220.81;5007131;28;20116;-66
2022/06/11 04:33:00;;;;;;;5.85;1.48;;;15.70;99.90;;;15.56;100.00;98212.41;5010244;28;20053;-67
2022/06/11 04:35:27;;;;;;;4.43;1.60;;;15.80;99.90;;;15.56;100.00;98213.25;5007814;28;20053;-68
2022/06/11 04:37:54;;;;;;;5.65;1.90;;;15.90;99.90;;;15.35;100.00;98219.59;5012830;28;20141;-68
2022/06/11 04:40:20;;;;;;;5.93;2.20;;;15.90;99.90;;;15.00;100.00;98225.69;5009710;28;20046;-66
2022/06/11 04:42:47;;;;;;;7.07;1.73;;;15.90;99.90;;;15.08;100.00;98234.94;5011163;28;20065;-68
2022/06/11 04:45:16;;;;;;;3.78;1.58;;;15.80;99.90;;;15.51;100.00;98220.50;5007828;28;20132;-67
2022/06/11 04:47:43;;;;;;;5.15;2.17;;;15.90;99.90;;;15.50;100.00;98229.28;5010459;28;20212;-67
2022/06/11 04:50:15;;;;;;;4.13;1.38;;;15.90;99.90;;;15.69;100.00;98224.78;5008038;28;20064;-67
2022/06/11 04:52:42;;;;;;;5.57;1.60;;;16.10;99.90;;;15.69;100.00;98227.38;5007491;28;20137;-68
2022/06/11 04:55:10;;;;;;;11.75;2.47;;;16.20;99.90;;;15.42;100.00;98227.06;5011851;28;20491;-67
2022/06/11 04:57:37;;;;;;;5.68;1.73;;;16.20;99.90;;;15.27;100.00;98233.06;5006441;28;20054;-67
2022/06/11 05:00:07;;;;;;;7.22;2.40;;;16.20;99.90;;;15.46;100.00;98233.84;5004337;28;20149;-69
2022/06/11 05:02:34;;;;;;;7.95;1.85;;;16.20;99.90;;;15.64;100.00;98232.00;5009508;28;20092;-66
2022/06/11 05:05:01;;;;;;;5.93;1.67;;;16.10;99.90;;;15.77;100.00;98221.78;5014143;28;20058;-66
2022/06/11 05:07:28;;;;;;;4.05;1.40;;;16.20;99.90;;;15.98;100.00;98218.91;5008149;28;20172;-66
2022/06/11 05:09:56;;;;;;;2.78;1.00;;;16.40;99.90;;;16.45;100.00;98223.31;5009762;28;20100;-66
2022/06/11 05:12:23;;;;;;;7.03;1.90;;;16.60;99.90;;;16.14;100.00;98217.16;5010382;28;20515;-67
2022/06/11 05:14:50;;;;;;;7.15;2.42;;;16.70;99.90;;;15.81;100.00;98230.31;5009066;28;20089;-67
2022/06/11 05:17:18;;;;;;;5.43;1.95;;;16.70;99.90;;;15.83;100.00;98228.47;5013229;28;20065;-68
2022/06/11 05:19:45;;;;;;;8.95;1.90;;;16.60;99.90;;;15.85;100.00;98221.34;5012537;28;20061;-68
2022/06/11 05:22:12;;;;;;;3.22;1.15;;;16.70;99.90;;;16.31;100.00;98227.56;5007007;28;20141;-67
2022/06/11 05:24:39;;;;;;;3.83;1.55;;;16.80;99.90;;;16.40;100.00;98223.59;5006582;28;20041;-67
2022/06/11 05:27:17;;;;;;;5.75;1.40;;;17.00;99.90;;;16.79;100.00;98224.91;5011772;28;20128;-67
2022/06/11 05:30:03;;;;;;;5.15;1.80;;;17.10;99.90;;;16.59;100.00;98217.31;5008714;28;20074;-68
2022/06/11 05:32:35;;;;;;;5.32;1.58;;;17.10;99.90;;;16.94;100.00;98217.91;5006982;28;20073;-66
2022/06/11 05:35:06;;;;;;;4.13;1.45;;;17.20;99.90;;;17.30;100.00;98219.31;5008894;28;20482;-66
2022/06/11 05:37:34;;;;;;;3.97;1.27;;;17.40;99.90;;;17.51;100.00;98220.63;5014520;28;20096;-67
2022/06/11 05:40:05;;;;;;;4.70;1.30;;;17.60;99.90;;;17.80;100.00;98214.56;5010314;28;20657;-65
2022/06/11 05:42:33;;;;;;;5.17;1.30;;;17.80;99.90;;;17.75;100.00;98213.06;5010482;28;20081;-66
2022/06/11 05:45:00;;;;;;;5.95;1.50;;;17.90;99.90;;;17.53;100.00;98210.03;5014060;28;20310;-66
2022/06/11 05:47:29;;;;;;;5.78;1.60;;;18.00;99.90;;;17.41;100.00;98213.44;5010608;28;20082;-67
2022/06/11 05:50:00;;;;;;;5.07;1.60;;;18.10;99.90;;;17.23;100.00;98228.50;5007885;28;20112;-68
2022/06/11 05:52:38;;;;;;;7.38;1.90;;;18.00;99.90;;;17.29;100.00;98225.50;5011982;28;20061;-68
2022/06/11 05:55:06;;;;;;;4.03;1.50;;;18.00;99.90;;;17.84;100.00;98214.31;5010073;28;20465;-67
2022/06/11 05:57:33;;;;;;;5.20;1.90;;;18.00;99.90;;;17.68;100.00;98218.78;5002345;28;20107;-67
2022/06/11 06:00:07;;;;;;;5.03;1.90;;;18.20;99.90;;;17.95;100.00;98214.47;5006249;28;20161;-67
2022/06/11 06:02:34;;;;;;;9.18;2.75;;;18.30;99.90;;;17.63;100.00;98226.94;5004619;28;20153;-66
2022/06/11 06:05:01;;;;;;;5.38;1.80;;;18.40;99.90;;;17.37;100.00;98225.88;4983243;28;20133;-68
2022/06/11 06:07:28;;;;;;;4.35;1.30;;;18.50;99.90;;;17.46;100.00;98224.47;4991034;28;20051;-67
2022/06/11 06:09:55;;;;;;;5.35;2.05;;;18.40;99.90;;;17.99;100.00;98225.63;4992253;28;20132;-68
2022/06/11 06:12:22;;;;;;;6.47;2.45;;;18.60;99.90;;;18.39;100.00;98220.47;4992904;28;20099;-68
2022/06/11 06:14:49;;;;;;;6.85;2.10;;;18.90;99.90;;;18.76;100.00;98225.97;4997077;28;20078;-68
2022/06/11 06:17:16;;;;;;;5.18;2.22;;;19.10;99.90;;;19.29;100.00;98221.56;4991367;28;20125;-68
2022/06/11 06:19:58;;;;;;;;;;;19.40;99.90;;;19.38;100.00;98220.13;4995546;28;20101;-67
2022/06/11 06:22:26;;;;;;;6.32;1.65;;;19.80;99.90;;;19.76;100.00;98224.56;4993085;28;19948;-67
2022/06/11 06:24:53;;;;;;;6.78;2.15;;;20.10;99.90;;;19.93;100.00;98213.66;4990737;28;20134;-67
2022/06/11 06:27:19;;;;;;;6.28;1.98;;;20.30;99.90;;;19.81;100.00;98219.81;4992848;28;20228;-67
2022/06/11 06:29:47;;;;;;;5.45;1.17;;;20.50;99.90;;;19.75;100.00;98228.13;4995968;28;20136;-68
2022/06/11 06:32:14;;;;;;;7.40;1.75;;;20.70;99.90;;;19.65;100.00;98222.63;4987123;28;20114;-67
2022/06/11 06:34:41;;;;;;;8.20;1.88;;;20.70;99.90;;;19.93;100.00;98212.84;4986412;28;20516;-69
2022/06/11 06:37:09;;;;;;;3.95;1.38;;;20.90;99.90;;;20.62;100.00;98210.53;5001833;28;20056;-69
2022/06/11 06:39:36;;;;;;;5.97;1.08;;;21.00;99.90;;;20.15;100.00;98210.34;4996153;28;20072;-69
2022/06/11 06:42:04;;;;;;;6.47;1.45;;;21.20;99.90;;;20.10;100.00;98207.22;4994919;28;20042;-69
2022/06/11 06:44:31;;;;;;;4.63;1.20;;;21.30;99.90;;;20.42;100.00;98212.81;4997217;28;20133;-68
2022/06/11 06:46:58;;;;;;;4.72;1.30;;;21.50;99.90;;;20.59;100.00;98218.66;4995077;28;20141;-67
2022/06/11 06:49:25;;;;;;;4.70;1.40;;;21.50;99.90;;;20.88;100.00;98216.50;4995988;28;20047;-69
2022/06/11 06:51:52;;;;;;;6.15;1.08;;;21.50;99.90;;;21.05;100.00;98210.81;4986850;28;20050;-67
2022/06/11 06:54:19;;;;;;;7.68;1.23;;;21.70;99.90;;;20.87;100.00;98212.22;4975561;28;20054;-68
2022/06/11 06:56:47;;;;;;;5.07;0.88;;;21.80;99.90;;;20.86;100.00;98211.34;4996016;28;20072;-67
2022/06/11 06:59:14;;;;;;;4.97;0.88;;;21.80;99.90;;;21.05;100.00;98215.25;4995098;28;20496;-67
2022/06/11 07:01:41;;;;;;;5.72;0.90;;;21.80;99.90;;;21.33;100.00;98215.81;4998919;28;20056;-68
2022/06/11 07:04:08;;;;;;;3.80;0.90;;;22.00;99.90;;;21.38;100.00;98218.94;4990591;28;20052;-68
2022/06/11 07:06:52;;;;;;;3.30;0.80;;;22.00;99.90;;;21.60;100.00;98218.13;4987760;28;20054;-67
2022/06/11 07:09:19;;;;;;;5.85;0.93;;;22.10;99.90;;;21.38;100.00;98216.28;4993770;28;20088;-68
2022/06/11 07:11:45;;;;;;;4.28;0.85;;;22.20;99.90;;;21.63;100.00;98212.63;4988945;28;20419;-67
2022/06/11 07:14:12;;;;;;;4.35;0.90;;;22.30;99.90;;;21.47;100.00;98215.63;4992550;28;20082;-67
2022/06/11 07:16:46;;;;;;;4.65;0.95;;;22.30;99.90;;;21.46;100.00;98212.16;4991050;28;20141;-68
2022/06/11 07:19:20;;;;;;;4.80;0.90;;;22.40;99.90;;;21.55;100.00;98217.66;4982408;28;20544;-67
2022/06/11 07:21:54;;;;;;;2.70;0.70;;;22.50;99.90;;;21.74;100.00;98228.50;4996089;28;20100;-68
2022/06/11 07:24:27;;;;;;;6.95;0.85;;;22.50;99.90;;;21.50;100.00;98218.84;4990496;28;20088;-67
2022/06/11 07:26:59;;;;;;;5.05;0.60;;;22.50;99.90;;;21.43;100.00;98214.16;4994930;28;20142;-67
2022/06/11 07:29:31;;;;;;;3.97;0.70;;;22.50;99.90;;;21.89;100.00;98214.06;4996427;28;20129;-68
2022/06/11 07:32:08;;;;;;;3.33;0.52;;;22.60;99.90;;;22.20;100.00;98221.38;4991887;28;20148;-68
2022/06/11 07:34:35;;;;;;;4.60;0.63;;;22.80;99.90;;;21.63;100.00;98215.28;4988997;28;20076;-67
2022/06/11 07:37:03;;;;;;;6.70;1.00;;;22.80;99.90;;;21.62;100.00;98206.53;4994076;28;20054;-68
2022/06/11 07:39:30;;;;;;;5.28;0.77;;;22.70;99.90;;;22.25;100.00;98206.84;4987807;28;20050;-68
2022/06/11 07:41:57;;;;;;;5.78;0.70;;;22.90;99.90;;;21.99;100.00;98208.91;4990342;28;20124;-67
2022/06/11 07:44:24;;;;;;;5.97;0.88;;;23.00;99.90;;;21.63;100.00;98208.19;4992037;28;20137;-69
2022/06/11 07:46:52;;;;;;;5.80;0.93;;;22.90;99.90;;;22.31;100.00;98206.34;4989628;28;20056;-67
2022/06/11 07:49:19;;;;;;;6.13;1.10;;;22.90;99.90;;;22.47;100.00;98207.78;4984776;28;20555;-67
2022/06/11 07:51:46;;;;;;;3.92;0.90;;;23.10;99.90;;;22.49;100.00;98200.56;4990719;28;20141;-68
2022/06/11 07:54:13;;;;;;;6.25;0.70;;;23.20;99.90;;;22.02;100.00;98207.81;4990491;28;20599;-68
2022/06/11 07:56:40;;;;;;;7.32;0.90;;;23.20;99.90;;;21.89;100.00;98213.22;4994038;28;20121;-68
2022/06/11 07:59:07;;;;;;;8.13;0.93;;;23.20;99.90;;;21.63;100.00;98215.28;4988862;28;20505;-67
2022/06/11 08:01:34;;;;;;;9.68;0.90;;;23.10;99.90;;;22.05;100.00;98216.31;4994135;28;20129;-69
2022/06/11 08:04:01;;;;;;;14.20;1.67;;;23.00;99.90;;;22.39;100.00;98218.13;4997655;28;20073;-68
2022/06/11 08:06:28;;;;;;;4.68;0.80;;;23.10;99.90;;;22.14;100.00;98223.53;4989242;28;20053;-68
2022/06/11 08:08:55;;;;;;;12.60;1.50;;;23.20;99.90;;;21.75;100.00;98210.84;4989080;28;20133;-67
2022/06/11 08:11:22;;;;;;;6.38;1.17;;;23.00;99.90;;;22.11;100.00;98210.56;4985986;28;20134;-68
2022/06/11 08:13:50;;;;;;;4.03;0.90;;;23.00;99.90;;;21.94;100.00;98224.28;4987123;28;20078;-68
2022/06/11 08:16:17;;;;;;;7.05;1.00;;;23.10;99.90;;;21.98;100.00;98215.13;4988541;28;20476;-69
2022/06/11 08:18:44;;;;;;;3.90;0.80;;;23.10;99.90;;;22.04;100.00;98219.94;4986706;28;20183;-68
2022/06/11 08:21:11;;;;;;;5.45;0.90;;;23.00;99.90;;;21.99;100.00;98221.28;4986177;28;20133;-67
2022/06/11 08:23:40;;;;;;;6.93;0.90;;;23.00;99.90;;;21.79;100.00;98220.22;4984912;28;20092;-67
2022/06/11 08:26:07;;;;;;;5.75;0.77;;;23.00;99.90;;;22.13;100.00;98213.94;4987154;28;20458;-68
2022/06/11 08:28:34;;;;;;;4.63;0.80;;;22.90;99.90;;;22.49;100.00;98216.41;4993270;28;20140;-67
2022/06/11 08:31:05;;;;;;;8.02;0.85;;;23.00;99.90;;;22.50;100.00;98224.22;4990395;28;20517;-67
2022/06/11 08:33:33;;;;;;;6.32;0.73;;;23.20;99.90;;;22.41;100.00;98226.78;4984740;28;20101;-68
2022/06/11 08:36:00;;;;;;;4.03;0.70;;;23.30;99.90;;;22.81;100.00;98218.22;4984477;28;20133;-67
2022/06/11 08:38:28;;;;;;;7.30;1.20;;;23.50;99.90;;;23.20;100.00;98216.75;4987411;28;20169;-67
2022/06/11 08:40:56;;;;;;;4.43;0.68;;;23.80;99.90;;;23.05;100.00;98210.06;4988520;28;20056;-68
2022/06/11 08:43:42;;;;;;;4.97;0.63;;;24.00;99.90;;;23.01;100.00;98219.25;4976817;28;20078;-67
2022/06/11 08:46:18;;;;;;;2.88;0.63;;;24.00;99.90;;;23.43;100.00;98211.31;4981960;28;20089;-66
2022/06/11 08:49:04;;;;;;;5.68;1.05;;;24.10;99.90;;;23.23;100.00;98224.41;4984699;28;20134;-67
2022/06/11 08:51:47;;;;;;;19.60;1.95;;;24.30;99.90;;;23.48;100.00;98219.69;4991160;28;20145;-67
2022/06/11 08:54:21;;;;;;;5.43;0.90;;;24.40;99.90;;;23.33;100.00;98222.69;4991442;28;20046;-67
2022/06/11 08:57:05;;;;;;;3.83;0.70;;;24.50;99.90;;;23.69;100.00;98215.19;4978633;28;20050;-68
2022/06/11 09:00:03;;;;;;;5.13;0.80;;;24.70;99.90;;;24.29;100.00;98209.13;4982691;28;20081;-67
2022/06/11 09:03:00;;;;;;;3.95;0.60;;;25.00;99.90;;;25.35;100.00;98202.22;4988367;28;20072;-67
2022/06/11 09:05:59;;;;;;;6.30;0.73;;;25.50;99.90;;;23.78;100.00;98217.06;4990992;28;20051;-67
2022/06/11 09:09:13;;;;;;;3.47;0.60;;;25.90;99.00;;;24.54;100.00;98200.72;4986384;28;20046;-68
2022/06/11 09:11:52;;;;;;;5.72;0.90;;;25.90;98.60;;;24.79;100.00;98195.81;4980847;28;20046;-67
2022/06/11 09:14:47;;;;;;;2.95;0.55;;;26.00;98.70;;;24.68;100.00;98198.59;4984765;28;20046;-69
2022/06/11 09:18:00;;;;;;;6.10;0.98;;;26.00;98.60;;;26.31;100.00;98189.50;4981463;28;20528;-67
2022/06/11 09:21:14;;;;;;;4.18;0.70;;;26.50;99.70;;;26.53;100.00;98195.41;4967458;28;20054;-67
2022/06/11 09:23:47;;;;;;;5.25;0.73;;;27.00;98.20;;;25.19;100.00;98200.16;4983000;28;20068;-68
2022/06/11 09:26:58;;;;;;;7.50;1.13;;;27.20;96.10;;;24.58;100.00;98203.91;4979791;28;21034;-68
2022/06/11 09:30:02;;;;;;;4.70;1.23;;;26.90;95.80;;;24.27;100.00;98206.66;4983256;28;20105;-68
2022/06/11 09:32:51;;;;;;;4.82;0.90;;;26.20;96.40;;;24.12;100.00;98211.47;4987314;28;20086;-68
2022/06/11 09:35:35;;;;;;;3.67;0.60;;;25.80;96.00;;;23.68;100.00;98212.69;4986803;28;20053;-68
2022/06/11 09:38:54;;;;;;;5.28;0.60;;;25.40;96.30;;;23.38;100.00;98215.19;4995952;28;20042;-67
2022/06/11 09:41:44;;;;;;;3.47;0.57;;;25.00;96.20;;;23.66;100.00;98209.34;4989709;28;20165;-67
2022/06/11 09:44:37;;;;;;;6.72;0.77;;;24.60;96.60;;;24.69;100.00;98202.94;4985323;28;20535;-67
2022/06/11 09:47:25;;;;;;;3.28;0.75;;;24.70;97.00;;;26.11;100.00;98206.56;4984369;28;20077;-67
2022/06/11 09:50:33;;;;;;;4.05;0.50;;;25.40;96.80;;;25.01;100.00;98224.75;4988702;28;20165;-68
2022/06/11 09:53:21;;;;;;;4.72;0.68;;;26.00;95.40;;;24.51;100.00;98214.25;4983281;28;20042;-70
2022/06/11 09:56:00;;;;;;;7.93;0.50;;;25.50;95.60;;;25.69;100.00;98197.22;5001648;28;20046;-67
2022/06/11 09:58:46;;;;;;;6.10;0.80;;;25.50;96.00;;;24.96;100.00;98202.25;4982414;28;20065;-68
2022/06/11 10:01:19;;;;;;;4.03;0.50;;;25.70;95.70;;;24.11;100.00;98206.34;4984808;28;20046;-69
2022/06/11 10:04:10;;;;;;;4.68;0.75;;;25.60;95.00;;;24.17;100.00;98213.72;4989164;28;20112;-67
2022/06/11 10:06:53;;;;;;;5.32;1.25;;;25.70;95.50;;;25.09;100.00;98209.91;4986180;28;20153;-68
2022/06/11 10:09:29;;;;;;;4.13;0.60;;;26.10;95.20;;;26.00;100.00;98205.81;4986602;28;20046;-67
2022/06/11 10:12:22;;;;;;;4.90;0.60;;;26.60;94.60;;;26.75;98.81;98204.78;4982265;28;20081;-68
2022/06/11 10:14:56;;;;;;;2.45;0.60;;;27.10;93.70;;;28.21;98.66;98195.25;4992418;28;20468;-67
2022/06/11 10:17:51;;;;;;;1.73;0.40;;;27.30;94.40;;;28.51;98.38;98197.38;4986511;28;20145;-67
2022/06/11 10:20:42;;;;;;;2.00;0.40;;;27.60;94.30;;;28.09;98.75;98194.72;4983174;28;20456;-68
2022/06/11 10:23:25;;;;;;;3.63;0.57;;;27.90;94.00;;;27.38;96.80;98209.16;4982576;28;20064;-69
2022/06/11 10:26:22;;;;;;;4.15;0.60;;;27.60;93.60;;;27.01;99.29;98208.34;4988254;28;20512;-67
2022/06/11 10:29:14;;;;;;;2.65;0.50;;;27.40;93.20;;;27.16;99.10;98207.78;4984460;28;20076;-68
2022/06/11 10:32:06;;;;;;;2.45;0.47;;;27.70;92.90;;;26.68;99.43;98209.88;4985541;28;20050;-67
2022/06/11 10:34:39;;;;;;;5.78;1.17;;;27.60;92.70;;;25.77;100.00;98210.63;4983603;28;20086;-67
2022/06/11 10:37:25;;;;;;;3.72;0.70;;;27.70;91.60;;;27.45;98.39;98204.88;4983551;28;20228;-68
2022/06/11 10:40:06;;;;;;;3.70;0.50;;;27.90;92.10;;;29.30;92.00;98202.25;4987851;28;20144;-68
2022/06/11 10:43:13;;;;;;;3.15;0.63;;;;;;;30.95;85.21;98204.09;4981425;28;20910;-67
2022/06/11 10:45:42;;;;;;;3.20;0.60;;;;;;;31.13;86.55;98193.03;4987293;28;20736;-68
2022/06/11 10:48:17;;;;;;;2.97;0.50;;;;;;;29.91;91.87;98197.28;4986019;28;20059;-68
2022/06/11 10:50:47;;;;;;;2.55;0.50;;;;;;;30.91;92.27;98193.91;4979237;28;20713;-67